Date,TemperatureHighF,TemperatureAvgF,TemperatureLowF,DewpointHighF,DewpointAvgF,DewpointLowF,HumidityHigh,HumidityAvg,HumidityLow,PressureMaxIn,PressureMinIn,WindSpeedMaxMPH,WindSpeedAvgMPH,GustSpeedMaxMPH,PrecipitationSumIn
2013-1-1,31.8,23.7,10.6,26.7,13.6,2.8,82,65,46,30.16,30.03,11,2,11,0.01
2013-1-2,23.0,14.0,5.4,11.9,6.2,-0.6,79,71,59,30.25,30.12,11,4,11,0.00
2013-1-3,28.4,20.3,7.3,21.2,10.8,-3.0,75,66,54,30.24,30.14,17,7,17,0.00
2013-1-4,28.0,22.8,16.7,19.2,13.7,9.5,74,68,60,30.26,30.17,25,12,25,0.00
2013-1-5,34.7,26.7,16.2,26.9,18.3,10.0,80,70,58,30.33,30.10,17,7,17,0.00
2013-1-6,36.1,32.6,28.0,28.8,25.4,21.5,79,74,68,30.31,29.98,19,8,19,0.00
2013-1-7,34.5,27.9,21.6,24.5,20.7,15.6,81,74,61,30.44,30.21,17,4,17,0.00
2013-1-8,40.5,29.7,20.1,26.4,20.7,13.0,78,69,57,30.31,30.20,14,4,14,0.00
2013-1-9,44.4,37.7,29.7,32.5,28.8,22.6,79,70,61,30.51,30.12,21,8,21,0.00
2013-1-10,42.4,33.8,24.6,29.8,25.8,19.7,83,73,59,30.58,30.16,12,3,12,0.00
2013-1-11,60.4,48.8,36.9,52.0,42.4,28.9,91,79,67,30.15,29.81,24,7,24,0.48
2013-1-12,61.0,53.1,47.5,52.8,47.2,41.3,89,80,72,30.01,29.79,18,6,18,0.43
2013-1-13,54.9,42.8,33.3,52.9,40.3,29.5,93,91,86,30.09,29.71,21,3,21,1.41
2013-1-14,33.3,26.2,24.6,29.5,18.4,15.6,86,72,65,30.47,30.09,9,0,9,0.00
2013-1-15,30.6,25.6,18.1,18.2,15.6,11.8,78,66,53,30.44,30.14,0,0,0,0.00
2013-1-16,36.1,29.8,23.2,24.6,20.6,16.7,81,69,55,30.15,29.90,19,5,19,0.01
2013-1-17,43.5,32.5,18.5,28.5,21.1,7.0,80,64,43,30.36,30.02,11,3,11,0.00
2013-1-18,36.9,28.6,18.3,21.1,15.7,7.2,74,59,44,30.48,30.08,29,9,29,0.00
2013-1-19,50.0,41.6,35.1,31.8,26.1,21.1,64,54,43,30.08,29.72,30,14,30,0.00
2013-1-20,43.0,26.5,18.5,31.7,11.3,4.3,66,52,41,30.22,29.71,30,7,30,0.00
2013-1-21,22.6,16.9,8.6,8.0,2.6,-4.4,65,53,34,30.18,30.01,17,7,17,0.00
2013-1-22,9.3,8.0,3.7,0.0,-1.6,-5.9,68,64,54,30.33,30.16,13,4,14,0.00
2013-1-23,19.6,13.4,5.0,10.6,0.9,-5.6,75,57,37,30.31,30.01,14,5,14,0.00
2013-1-24,23.4,15.0,5.9,10.6,2.8,-1.7,75,59,37,30.52,30.02,16,3,16,0.00
2013-1-25,22.1,19.4,16.5,14.3,10.1,5.5,74,67,58,30.42,29.96,11,4,11,0.00
2013-1-26,32.4,23.4,13.1,19.7,13.4,4.3,79,66,48,30.39,30.00,8,2,8,0.04
2013-1-27,32.5,22.4,11.1,25.2,13.2,3.9,76,67,54,30.42,30.06,14,3,14,1.51
2013-1-28,51.1,42.4,31.3,45.7,39.2,25.5,93,88,75,30.06,29.86,24,8,24,0.14
2013-1-29,60.8,52.9,42.1,53.9,48.9,40.2,100,87,76,29.96,29.44,24,8,24,0.02
2013-1-30,63.9,52.0,33.3,55.0,46.1,25.4,91,80,71,29.44,29.13,27,12,27,0.28
2013-1-31,33.1,23.4,16.5,25.4,13.9,2.6,81,67,51,29.88,29.31,26,10,26,0.00
2013-2-1,21.2,14.3,8.8,8.6,3.7,0.2,68,62,54,30.25,29.88,19,9,19,0.00
2013-2-2,25.3,19.3,13.3,18.0,12.3,3.5,79,74,64,30.20,29.89,18,7,18,0.00
2013-2-3,22.5,16.3,7.9,12.0,8.4,1.1,76,71,61,29.99,29.84,15,4,15,0.00
2013-2-4,26.4,21.3,15.8,18.9,14.9,8.7,81,76,70,30.00,29.80,13,4,13,0.00
2013-2-5,32.9,23.9,15.4,24.3,17.7,10.4,83,77,65,29.92,29.77,12,4,12,0.01
2013-2-6,34.7,25.1,12.9,24.8,12.0,4.2,83,59,32,30.25,29.92,8,1,8,0.05
2013-2-7,43.9,31.5,21.2,27.8,20.7,12.0,80,65,49,30.21,29.73,10,4,10,0.01
2013-2-8,33.4,29.7,23.2,28.7,22.6,14.9,85,75,63,30.23,29.69,12,1,12,0.12
2013-2-9,23.2,23.2,23.2,14.9,14.9,14.9,70,70,70,30.23,30.23,0,0,0,0.00
2013-2-10,44.6,26.9,23.2,37.5,18.1,14.9,77,69,55,30.23,29.74,19,2,19,0.02
2013-2-11,46.6,38.2,32.4,41.2,28.9,20.2,86,69,58,29.97,29.64,30,13,30,0.00
2013-2-12,37.9,32.2,25.9,25.1,21.7,19.2,76,65,55,30.11,29.95,15,4,15,0.00
2013-2-13,36.1,29.6,25.5,23.9,21.1,18.2,78,70,59,29.96,29.78,12,1,12,0.00
2013-2-14,42.6,36.1,30.6,33.5,28.1,23.9,82,73,63,29.94,29.76,21,8,21,0.00
2013-2-15,35.1,29.7,22.5,24.0,18.6,10.9,75,63,49,30.17,29.94,11,2,11,0.00
2013-2-16,30.4,22.9,15.4,19.7,12.1,3.6,73,63,47,30.15,30.01,10,2,10,0.00
2013-2-17,28.4,19.6,13.5,12.0,6.7,3.6,74,58,37,30.23,30.09,14,2,14,0.00
2013-2-18,53.2,35.1,16.9,32.8,19.0,6.9,65,53,39,30.24,29.67,22,8,22,0.00
2013-2-19,46.6,28.0,16.7,37.6,18.8,6.0,80,68,57,30.04,29.53,39,13,39,0.14
2013-2-20,24.8,21.1,17.1,14.4,11.0,7.7,69,65,57,30.29,30.04,16,4,16,0.00
2013-2-21,26.1,23.0,20.5,14.4,12.1,9.5,67,62,59,30.39,30.23,16,4,16,0.00
2013-2-22,38.3,29.4,21.6,32.7,23.5,11.3,87,78,62,30.24,29.91,21,5,21,0.06
2013-2-23,34.3,30.6,27.7,28.5,21.6,17.1,83,69,62,29.99,29.93,17,4,17,0.00
2013-2-24,39.4,30.7,23.4,26.3,20.4,15.4,73,65,55,30.18,29.95,11,2,11,0.00
2013-2-25,43.7,32.2,22.6,26.9,21.2,17.1,81,65,43,30.25,30.07,14,3,14,0.00
2013-2-26,38.1,32.3,29.3,32.1,26.4,21.1,88,79,68,30.08,29.46,20,7,20,0.89
2013-2-27,40.5,34.7,31.8,34.3,31.3,28.6,89,87,80,29.65,29.46,18,8,18,0.22
2013-2-28,40.1,34.5,31.8,35.1,29.2,25.4,89,81,69,29.97,29.61,17,2,17,0.11
2013-3-1,31.8,29.2,26.4,27.3,20.4,16.1,83,69,64,30.12,29.96,16,9,16,0.00
2013-3-2,30.0,26.5,24.6,19.2,16.7,14.4,71,66,61,30.10,30.06,14,4,14,0.00
2013-3-3,34.2,26.0,22.5,15.8,13.5,10.7,68,59,43,30.09,30.03,12,1,12,0.00
2013-3-4,37.4,27.3,16.7,19.7,14.6,9.9,76,60,40,30.19,30.08,7,0,7,0.00
2013-3-5,35.6,29.3,27.0,25.2,21.1,18.7,83,71,54,30.12,29.75,27,10,27,0.00
2013-3-6,39.7,33.2,27.9,28.2,24.0,20.6,75,69,59,30.25,29.77,27,7,27,0.00
2013-3-7,42.3,35.4,31.6,31.1,25.2,19.7,79,67,53,30.41,30.23,11,1,11,0.00
2013-3-8,45.7,33.9,23.7,22.5,19.7,15.8,73,57,37,30.51,30.41,11,1,11,0.00
2013-3-9,52.2,37.9,25.2,33.2,26.6,19.3,80,65,42,30.43,30.04,12,2,12,0.01
2013-3-10,64.9,53.5,37.0,40.1,34.5,30.2,77,50,32,30.04,29.83,21,7,22,0.00
2013-3-11,58.1,49.8,37.0,46.5,40.2,28.9,80,70,44,29.85,29.52,27,12,27,0.32
2013-3-12,37.6,34.2,30.2,29.9,26.1,21.6,83,72,61,29.98,29.79,23,8,23,0.01
2013-3-13,34.7,30.1,25.7,25.5,19.0,13.7,77,63,48,30.26,29.94,15,5,15,0.00
2013-3-14,45.0,31.7,21.7,21.5,17.2,13.0,71,56,34,30.31,30.14,9,0,9,0.00
2013-3-15,46.6,37.8,29.3,34.7,28.6,20.6,83,70,56,30.14,29.85,12,3,12,0.06
2013-3-16,82.6,33.4,31.1,77.7,28.7,24.8,87,83,77,30.08,29.72,16,5,16,0.02
2013-3-17,32.2,29.4,26.2,24.8,18.7,15.7,77,64,56,30.26,30.08,17,6,17,0.01
2013-3-18,38.7,32.9,27.5,34.7,26.6,17.1,88,78,59,30.16,29.58,22,6,22,0.07
2013-3-19,35.2,29.9,23.5,30.3,16.8,12.4,83,58,42,30.00,29.72,26,7,26,0.00
2013-3-20,34.0,26.8,18.3,14.9,10.8,4.0,65,51,36,30.00,29.94,11,1,11,0.00
2013-3-21,35.8,25.2,16.2,18.5,13.0,6.5,73,60,46,30.00,29.93,14,0,14,0.00
2013-3-22,45.9,32.8,25.9,19.1,15.6,12.6,63,50,29,30.04,29.97,12,0,12,0.00
2013-3-23,42.8,31.5,21.0,23.6,18.2,14.1,77,59,39,30.11,30.02,12,0,12,0.00
2013-3-24,50.9,31.5,23.9,41.8,20.4,-20.3,76,64,49,30.03,29.57,29,9,29,0.00
2013-3-25,36.0,32.6,29.8,30.7,27.3,19.7,87,81,62,29.93,29.50,26,10,26,0.05
2013-3-26,48.0,36.5,32.4,31.0,26.6,-18.0,81,68,10,30.17,29.93,7,0,7,0.02
2013-3-27,47.7,38.0,30.7,27.3,23.7,18.0,77,58,37,30.26,30.16,8,2,8,0.00
2013-3-28,54.0,40.1,25.9,24.1,20.8,16.3,69,49,27,30.31,30.25,8,0,8,0.00
2013-4-3,46.8,33.2,19.6,18.1,5.0,-8.8,63,35,10,30.44,30.27,17,3,17,0.00
2013-4-4,58.8,39.3,22.1,14.4,5.0,-6.8,60,30,10,30.39,29.99,20,3,20,0.00
2013-4-5,55.4,43.1,33.1,30.1,14.7,-5.4,64,36,10,30.22,29.96,17,5,17,0.00
2013-4-6,58.8,45.3,29.8,18.5,10.7,0.3,58,29,11,30.27,29.84,20,4,20,0.00
2013-4-7,68.4,59.2,46.4,42.2,32.5,12.2,51,37,18,30.03,29.72,24,3,24,0.00
2013-4-8,73.6,55.9,39.6,50.0,39.9,28.4,69,56,39,30.05,29.78,34,6,34,0.02
2013-4-9,83.1,60.1,46.0,51.9,42.1,36.8,72,54,28,30.10,29.85,31,7,31,0.00
2013-4-10,51.1,46.9,43.2,44.2,41.5,39.1,86,81,66,29.99,29.83,21,8,21,0.44
2013-4-11,51.6,40.0,35.8,46.8,35.9,27.1,87,85,84,29.98,29.60,27,12,27,0.72
2013-4-12,50.7,40.7,38.8,41.0,34.1,29.2,89,78,63,29.86,29.53,24,8,24,0.25
2013-4-13,45.3,40.3,38.1,34.5,30.9,26.9,82,69,53,30.03,29.86,24,8,24,0.01
2013-4-14,56.5,44.4,34.3,38.7,33.0,27.6,77,65,45,30.13,29.94,14,5,14,0.00
2013-4-15,70.5,56.4,36.5,49.2,42.4,30.6,81,61,43,30.00,29.90,21,4,21,0.04
2013-4-16,60.3,55.3,47.8,49.9,46.6,39.1,83,73,67,30.23,29.91,11,1,11,0.12
2013-4-17,56.1,49.7,44.4,40.6,34.6,29.4,74,57,43,30.32,30.04,22,10,22,0.00
2013-4-18,84.2,62.6,45.7,60.2,51.5,34.0,86,68,41,30.05,29.62,38,10,38,0.27
2013-4-19,64.8,45.9,36.0,56.1,36.7,25.6,86,71,54,29.86,29.41,33,12,33,0.13
2013-4-20,47.8,38.6,30.0,28.2,22.6,16.0,76,54,32,30.46,29.86,17,5,17,0.01
2013-4-21,52.0,38.7,26.2,28.2,20.8,15.0,64,50,28,30.62,30.46,18,3,18,0.00
2013-4-22,68.2,47.5,28.6,32.2,23.7,8.6,77,46,12,30.47,30.20,17,2,17,0.00
2013-4-23,73.4,56.7,39.7,56.2,37.0,29.2,84,52,20,30.20,29.85,25,4,25,0.14
2013-4-24,59.2,44.6,35.1,52.1,37.6,25.2,84,76,59,30.20,29.75,18,3,18,0.51
2013-4-25,55.6,42.9,33.3,38.2,29.2,23.9,75,60,35,30.38,30.18,26,4,26,0.01
2013-4-26,63.5,46.8,29.8,34.5,26.7,20.3,78,50,21,30.49,30.37,15,2,15,0.01
2013-4-27,71.6,55.2,36.0,37.6,27.6,11.5,73,41,10,30.39,30.11,14,3,14,0.00
2013-4-28,62.2,55.8,50.7,54.9,47.3,31.7,87,74,47,30.11,29.85,11,3,11,0.48
2013-4-29,70.9,61.0,53.2,57.8,52.3,48.8,91,75,48,29.99,29.87,12,2,12,0.00
2013-4-30,77.0,63.8,51.3,53.6,49.9,46.3,84,63,36,30.08,29.98,14,1,14,0.00
2013-5-1,83.7,68.6,52.5,54.8,49.8,45.4,81,55,27,30.24,30.08,14,2,14,0.00
2013-5-2,79.5,64.7,0.0,54.4,49.5,44.9,79,58,31,30.27,29.56,57,3,129,0.00
2013-5-3,80.6,67.2,56.7,56.6,47.6,34.1,79,53,21,30.11,30.00,18,4,18,0.01
2013-5-4,73.2,61.4,52.5,48.0,43.7,38.8,72,54,31,30.08,29.99,17,4,17,0.00
2013-5-5,73.2,60.7,48.7,48.6,44.2,40.6,75,56,32,30.05,29.98,20,6,20,0.00
2013-5-6,72.9,61.6,51.6,52.4,46.0,39.4,75,57,43,30.02,29.95,15,4,15,0.00
2013-5-7,73.4,62.8,50.2,55.8,49.7,42.4,78,63,51,30.03,29.96,20,5,20,0.00
2013-5-8,78.3,65.5,54.7,54.4,50.4,46.4,77,60,41,30.00,29.92,14,3,14,0.00
2013-5-9,83.1,69.4,52.9,56.3,51.4,40.3,85,56,24,29.98,29.90,16,3,16,0.00
2013-5-10,72.5,63.7,48.7,60.9,55.8,42.4,91,76,63,29.94,29.74,19,6,19,0.32
2013-5-11,57.7,49.1,38.7,47.4,42.0,32.6,84,77,67,29.94,29.79,17,4,17,0.02
2013-5-12,54.3,43.8,35.8,36.5,31.3,25.3,85,63,42,30.11,29.92,15,4,15,0.00
2013-5-13,60.3,45.8,32.4,32.5,27.8,23.4,77,53,27,30.17,30.08,14,2,14,0.00
2013-5-14,83.8,62.0,39.7,58.0,43.9,29.8,71,53,37,30.11,29.73,28,7,28,0.00
2013-5-15,90.1,75.7,64.0,62.3,54.4,45.8,66,50,24,29.80,29.66,21,6,21,0.00
2013-5-16,85.8,70.6,52.0,51.8,45.2,38.3,73,44,22,29.95,29.78,10,2,10,0.00
2013-5-17,75.6,63.2,51.8,52.7,46.3,40.6,75,55,39,30.13,29.96,19,7,19,0.04
2013-5-18,79.3,64.7,54.1,57.3,49.5,41.8,74,59,45,30.13,30.01,15,4,15,0.00
2013-5-19,87.4,71.7,54.7,63.3,56.9,45.9,81,61,43,30.02,29.88,13,3,13,0.00
2013-5-20,90.7,78.7,65.7,68.2,63.6,59.6,86,62,41,29.95,29.81,27,8,27,0.00
2013-5-21,89.2,78.9,70.7,63.7,60.9,56.8,76,56,36,29.85,29.74,26,9,26,0.00
2013-5-22,83.5,72.2,62.6,63.1,59.6,54.9,82,65,44,29.78,29.67,37,9,37,0.02
2013-5-23,70.7,58.4,46.4,61.4,52.6,41.8,87,81,62,30.14,29.73,20,7,20,0.14
2013-5-24,62.6,50.4,41.0,42.7,39.0,35.8,89,67,41,30.33,30.14,17,5,17,0.00
2013-5-25,67.8,53.1,37.6,44.2,38.6,34.0,90,61,33,30.39,30.25,12,2,12,0.00
2013-5-26,70.5,57.1,40.8,43.6,36.5,29.7,87,51,23,30.34,30.21,12,3,12,0.00
2013-5-27,57.2,54.5,52.0,53.6,45.6,37.1,90,73,52,30.24,29.95,14,3,14,0.48
2013-5-28,81.9,70.3,56.7,68.4,61.8,53.0,92,76,60,29.96,29.85,27,8,27,0.53
2013-5-29,88.5,77.9,69.4,68.3,62.3,58.5,69,59,44,30.02,29.88,24,8,24,0.00
2013-5-30,90.5,78.3,67.8,67.4,63.0,57.9,77,60,42,30.09,29.97,21,6,21,0.00
2013-5-31,84.0,74.7,69.8,67.6,64.1,60.4,84,70,53,30.02,29.90,28,9,28,0.09
2013-6-1,78.8,69.6,63.0,67.3,63.1,60.0,92,81,59,29.95,29.73,27,5,27,1.38
2013-6-2,73.2,66.5,57.2,65.7,58.3,49.0,92,75,62,29.97,29.72,19,6,19,0.02
2013-6-3,69.6,59.0,49.8,49.2,43.9,37.9,75,59,34,30.09,29.97,11,4,11,0.00
2013-6-4,71.8,60.7,47.1,51.4,46.2,41.5,84,61,41,30.18,30.08,13,3,13,0.00
2013-6-5,75.0,63.5,51.4,54.6,48.7,44.8,83,60,43,30.15,29.96,20,5,20,0.00
2013-6-6,69.6,62.0,56.8,56.5,50.9,46.4,80,67,61,29.96,29.83,15,6,15,0.00
2013-6-7,62.4,58.1,52.2,52.9,50.7,48.2,89,77,68,29.91,29.85,10,3,10,0.00
2013-6-8,77.2,63.8,48.9,55.3,51.9,46.4,92,68,43,30.05,29.90,11,2,11,0.00
2013-6-9,84.6,71.7,58.3,63.3,57.2,51.1,84,62,41,30.08,29.92,15,4,15,0.00
2013-6-10,78.6,70.0,66.7,66.4,63.7,60.9,90,81,63,29.93,29.73,14,2,14,0.26
2013-6-11,86.7,74.9,66.2,66.8,63.4,60.1,88,69,47,29.92,29.78,10,3,10,0.00
2013-6-12,87.4,75.0,65.8,71.8,64.5,59.6,86,71,55,29.91,29.59,14,3,14,0.05
2013-6-13,80.6,70.6,64.2,65.6,59.6,54.1,91,70,45,29.91,29.48,27,6,27,0.73
2013-6-14,79.0,68.4,58.1,59.9,56.7,53.4,87,67,47,30.07,29.91,14,3,14,0.00
2013-6-15,79.9,67.5,55.0,63.5,57.7,51.9,90,72,45,30.11,29.93,14,3,14,0.01
2013-6-16,84.6,73.9,66.0,68.5,64.4,60.0,89,73,56,29.94,29.84,17,5,17,0.13
2013-6-17,86.9,75.6,64.8,69.3,63.6,59.6,92,69,41,29.95,29.86,12,4,12,0.00
2013-6-18,74.8,70.7,60.4,60.0,58.4,49.4,72,65,57,30.05,29.88,15,2,15,0.00
2013-6-19,76.3,64.8,50.7,55.9,50.0,43.1,81,60,42,30.16,30.05,14,4,14,0.00
2013-6-20,58.5,52.8,52.2,49.3,47.2,46.8,82,81,71,30.16,30.15,2,0,2,0.00
2013-6-21,52.3,52.3,52.3,47.0,47.0,47.0,82,82,82,30.16,30.16,0,0,1,0.00
2013-6-22,91.9,77.1,52.3,70.9,64.2,47.0,91,66,46,30.16,29.95,40,6,40,1.33
2013-6-23,90.3,78.4,70.0,69.7,66.8,59.2,92,70,45,30.08,29.96,24,6,24,0.01
2013-6-24,88.0,78.1,66.4,71.2,66.3,62.1,88,68,51,30.06,29.92,18,5,18,0.00
2013-6-25,90.0,78.2,67.8,75.0,67.6,62.1,88,71,52,29.97,29.78,21,5,21,0.50
2013-6-26,87.4,74.4,66.9,70.9,66.3,63.3,90,77,55,29.91,29.70,15,4,15,0.12
2013-6-27,86.9,75.5,68.5,72.2,67.8,63.0,91,78,57,29.74,29.61,20,3,20,0.06
2013-6-28,85.1,71.5,63.5,68.3,64.0,58.9,93,78,52,29.62,29.50,14,2,14,0.09
2013-6-29,77.5,67.1,59.7,64.8,61.8,57.4,93,84,63,29.67,29.52,11,2,11,0.78
2013-6-30,74.3,68.3,62.6,61.8,59.8,57.0,88,75,62,29.88,29.67,18,6,18,0.02
2013-7-1,68.9,64.5,60.3,62.0,57.1,52.1,86,77,72,29.98,29.86,24,9,24,0.01
2013-7-2,73.4,65.9,62.2,65.5,61.3,55.1,93,85,73,30.01,29.93,14,5,14,0.06
2013-7-3,82.8,72.0,63.3,68.2,63.9,60.0,94,77,53,30.07,29.98,16,4,16,0.00
2013-7-4,81.9,73.3,68.2,68.4,65.9,64.2,89,78,57,30.11,30.05,10,3,10,0.07
2013-7-5,83.5,74.6,67.6,68.4,66.6,65.3,92,77,58,30.09,30.02,10,2,10,0.19
2013-7-6,81.5,73.1,68.2,71.6,67.6,64.5,90,83,64,30.09,29.96,11,2,11,0.84
2013-7-7,81.9,71.4,66.6,68.3,64.8,59.7,90,80,61,30.04,29.96,14,5,14,0.08
2013-7-8,84.6,74.6,67.1,72.5,67.8,63.1,90,80,66,30.03,29.96,19,5,19,0.22
2013-7-9,89.6,76.6,71.1,75.8,70.8,67.5,90,83,61,29.97,29.89,14,3,14,0.05
2013-7-10,87.6,76.5,65.5,75.8,69.2,59.8,89,78,67,29.94,29.74,36,5,36,0.91
2013-7-11,79.2,70.2,62.4,60.9,58.3,55.1,85,67,46,30.01,29.90,15,4,15,0.00
2013-7-12,79.7,68.9,57.0,64.3,58.6,53.4,89,71,48,30.11,30.01,15,4,15,0.00
2013-7-13,82.9,73.1,0.0,68.3,63.4,56.3,89,72,58,30.15,30.07,12,4,12,0.00
2013-7-14,88.2,77.1,64.9,72.6,67.7,61.3,90,74,55,30.21,30.14,11,3,11,0.00
2013-7-15,92.5,81.6,70.7,74.6,70.5,66.5,89,70,50,30.26,30.19,10,2,10,0.00
2013-7-16,93.9,83.1,71.8,74.8,71.9,67.6,88,71,50,30.29,30.21,8,2,8,0.00
2013-7-17,94.5,83.0,72.0,77.6,72.2,67.7,87,71,51,30.27,30.13,10,2,10,0.04
2013-7-18,93.7,83.3,72.1,74.9,72.0,68.1,89,70,51,30.15,29.96,14,3,14,0.00
2013-7-19,93.0,83.4,73.9,74.8,71.4,69.5,86,69,50,29.97,29.76,20,7,20,0.00
2013-7-20,88.7,78.3,70.7,73.5,69.3,64.0,90,75,53,29.88,29.72,20,5,20,1.20
2013-7-21,85.1,75.4,66.4,67.9,64.9,62.1,88,71,51,29.95,29.87,11,3,11,0.00
2013-7-22,78.3,71.0,66.9,69.5,65.0,61.2,91,82,67,29.92,29.74,6,2,6,1.44
2013-7-23,86.5,74.2,65.3,70.6,65.4,54.9,91,75,53,29.81,29.66,19,4,19,0.00
2013-7-24,72.3,63.9,54.3,54.9,52.2,49.3,84,67,50,30.00,29.81,16,6,16,0.00
2013-7-25,77.7,65.3,53.1,57.9,53.8,50.4,92,69,44,30.07,30.00,9,2,9,0.00
2013-7-26,79.0,68.1,53.8,60.8,56.8,50.9,91,69,46,30.07,29.88,13,3,13,0.00
2013-7-27,80.1,67.2,56.7,66.3,60.1,51.2,90,79,46,29.90,29.71,22,5,22,0.09
2013-7-28,68.9,59.5,50.5,56.6,51.0,47.4,90,75,58,29.98,29.83,17,4,17,0.02
2013-7-29,75.6,62.6,50.7,60.4,53.6,46.6,87,74,54,30.15,29.97,11,2,11,0.00
2013-7-30,80.1,67.2,51.4,62.3,56.9,48.9,92,71,49,30.19,30.08,8,2,8,0.00
2013-7-31,78.3,70.3,65.8,66.4,63.4,59.7,93,79,61,30.09,29.88,12,4,12,0.14
2013-8-1,80.4,69.9,59.9,66.9,61.8,52.3,94,77,53,29.92,29.85,14,2,14,0.09
2013-8-2,73.9,64.4,54.1,65.8,58.0,49.6,89,80,66,29.97,29.82,17,4,17,0.13
2013-8-3,82.2,70.9,60.8,65.5,60.4,53.6,92,72,45,29.99,29.88,10,2,10,0.00
2013-8-4,75.9,65.5,53.8,59.4,54.8,50.0,88,70,51,30.12,29.99,13,3,13,0.00
2013-8-5,75.4,65.5,54.3,60.7,55.9,50.8,89,73,52,30.08,29.93,11,2,11,0.00
2013-8-6,80.8,70.8,62.2,65.4,61.3,57.7,86,73,57,29.94,29.87,21,4,21,0.02
2013-8-7,82.0,73.1,66.6,70.9,66.6,61.8,88,80,65,29.90,29.82,14,3,14,0.08
2013-8-8,76.5,71.3,68.2,67.4,65.2,63.3,91,81,72,29.96,29.86,14,4,14,0.00
2013-8-9,82.2,72.0,63.7,64.4,60.0,56.0,84,67,46,29.98,29.90,8,3,8,0.00
2013-8-10,77.4,68.9,60.6,68.8,61.5,55.9,87,78,65,30.07,29.98,12,2,12,0.11
2013-8-11,83.1,69.7,57.2,64.0,59.2,54.0,90,71,46,30.08,29.99,8,2,8,0.00
2013-8-12,83.7,72.3,61.3,67.3,63.0,57.1,87,74,55,30.04,29.81,14,3,14,0.00
2013-8-13,73.0,64.4,53.6,65.1,55.2,46.9,90,73,51,30.01,29.79,16,3,16,0.00
2013-8-14,72.0,58.7,45.3,53.7,48.3,41.4,88,70,45,30.14,30.01,12,2,12,0.00
2013-8-15,76.8,61.6,46.4,55.3,49.8,43.0,89,68,43,30.15,30.06,9,2,9,0.00
2013-8-16,78.6,65.1,53.2,58.3,52.9,48.4,87,67,44,30.16,30.08,9,2,9,0.00
2013-8-17,55.9,52.2,52.0,49.5,47.7,47.6,86,85,77,30.17,30.15,2,0,2,0.00
2013-8-18,81.9,57.5,0.0,59.1,50.2,47.6,85,77,42,30.17,30.07,10,0,10,0.00
2013-8-19,85.8,70.2,55.6,64.1,58.2,52.1,89,68,45,30.10,30.01,9,2,9,0.00
2013-8-20,86.0,72.7,57.6,66.3,60.8,53.7,88,68,47,30.13,30.05,14,2,14,0.00
2013-8-21,87.6,74.1,63.1,68.7,63.9,57.9,86,71,50,30.13,29.99,14,4,14,0.00
2013-8-22,86.4,73.3,65.3,70.6,65.9,60.9,91,78,57,30.04,29.94,11,3,11,0.12
2013-8-23,82.6,72.1,59.4,65.5,60.7,53.2,94,70,42,30.15,30.01,12,3,12,0.02
2013-8-24,82.9,68.6,53.4,63.5,55.9,50.6,92,67,41,30.27,30.15,13,2,13,0.00
2013-8-25,87.8,71.7,55.4,64.3,58.7,51.3,86,66,43,30.27,30.15,14,4,14,0.00
2013-8-26,89.4,75.3,61.5,69.2,63.6,56.7,85,68,49,30.18,29.98,16,5,16,0.00
2013-8-27,86.5,77.4,69.6,73.5,70.0,66.1,90,78,64,30.00,29.85,17,5,17,0.02
2013-8-28,87.8,77.9,70.3,75.6,70.3,65.8,89,78,65,29.96,29.77,16,4,16,1.31
2013-8-29,87.1,74.4,65.3,70.7,66.5,61.9,95,78,51,30.04,29.96,10,2,10,0.00
2013-8-30,88.2,75.2,62.6,71.2,65.6,60.3,95,74,49,29.98,29.74,16,4,16,0.00
2013-8-31,86.4,76.2,66.9,71.1,67.5,62.3,87,75,57,29.82,29.71,16,3,16,0.00
2013-9-1,80.1,74.2,69.3,70.0,68.0,65.9,91,81,70,29.79,29.71,12,3,12,0.00
2013-9-2,82.8,71.2,58.3,70.3,63.2,52.6,94,78,50,29.88,29.71,10,3,10,0.00
2013-9-3,76.1,63.3,56.1,58.3,53.9,50.2,86,72,52,30.01,29.88,9,2,9,0.00
2013-9-4,85.3,66.5,50.9,60.9,55.2,48.5,93,70,39,30.08,29.99,13,3,13,0.00
2013-9-5,75.4,64.8,52.7,58.6,51.2,39.4,90,65,29,30.20,30.05,13,3,13,0.00
2013-9-6,78.1,61.9,46.0,53.6,48.7,43.6,92,65,34,30.24,30.06,9,2,9,0.00
2013-9-7,88.2,68.9,52.9,67.8,57.0,45.2,79,67,43,30.06,29.88,11,2,11,0.01
2013-9-8,75.0,68.1,59.0,65.8,61.0,53.9,93,79,64,30.02,29.90,20,4,20,0.00
2013-9-9,90.0,71.2,56.8,68.7,60.4,50.8,87,71,46,30.02,29.87,14,3,14,0.07
2013-9-10,98.1,84.2,73.6,72.2,67.6,61.9,86,60,35,30.03,29.90,17,6,17,0.00
2013-9-11,96.3,77.0,0.0,68.4,65.9,9.5,82,68,36,30.03,29.20,14,3,14,0.00
2013-9-12,82.6,70.9,57.4,68.8,63.1,53.2,93,78,46,29.97,29.82,0,0,0,0.34
2013-9-13,65.8,54.5,43.7,53.2,46.5,38.9,90,75,51,30.11,29.95,0,0,0,0.01
2013-9-14,70.9,53.9,38.5,47.6,42.1,36.4,92,68,33,30.18,30.08,0,0,0,0.00
2013-9-15,73.6,57.7,0.0,54.4,47.3,27.9,92,71,37,30.12,28.82,0,0,115,0.24
2013-9-16,69.6,58.0,50.4,55.0,51.2,43.8,95,79,55,30.33,30.10,0,0,0,0.00
2013-9-17,72.1,55.4,0.0,52.7,45.4,39.2,93,71,34,30.36,30.19,0,0,0,0.00
2013-9-18,80.8,62.7,50.4,58.7,52.7,46.5,89,72,41,30.19,30.01,0,0,0,0.00
2013-9-19,82.8,69.8,59.0,66.8,62.7,54.5,93,79,56,30.04,29.92,0,0,0,0.01
2013-9-20,87.8,74.0,68.0,69.7,66.7,64.2,93,80,52,29.94,29.74,0,0,0,0.28
2013-9-21,74.1,64.0,51.3,66.1,55.9,46.2,95,77,46,29.85,29.69,0,0,0,0.33
2013-9-22,64.9,54.0,44.8,47.2,44.1,40.2,92,71,47,30.04,29.85,0,0,0,0.00
2013-9-23,63.7,51.4,41.9,49.8,43.6,39.2,92,76,52,30.15,30.03,0,0,0,0.00
2013-9-24,69.1,53.5,38.7,49.4,44.3,36.5,93,73,45,30.11,29.96,0,0,0,0.00
2013-9-25,73.2,58.2,46.2,57.0,50.7,43.3,94,78,53,29.97,29.90,0,0,0,0.00
2013-9-26,77.2,59.7,45.0,59.1,48.0,37.8,93,70,30,30.11,29.95,0,0,0,0.01
2013-9-27,76.5,59.9,45.1,62.9,50.3,42.2,96,73,45,30.20,30.11,0,0,0,0.00
2013-9-28,82.0,63.5,45.5,57.6,50.9,43.6,95,68,33,30.17,30.01,0,0,0,0.00
2013-9-29,64.8,61.7,59.4,61.5,56.4,51.1,94,83,69,30.02,29.95,0,0,0,0.34
2013-9-30,74.1,62.1,56.7,58.9,56.3,52.3,95,83,57,30.02,29.91,0,0,0,0.01
2013-10-1,77.5,65.2,54.0,63.3,57.8,52.1,95,78,56,30.03,29.95,0,0,0,0.00
2013-10-2,83.7,70.4,61.2,64.7,60.0,56.3,91,71,49,30.07,29.97,0,0,0,0.13
2013-10-3,80.8,70.1,61.0,69.3,63.2,57.1,95,79,60,30.03,29.93,0,0,0,0.05
2013-10-4,79.2,69.3,66.0,69.1,64.4,62.6,90,85,68,30.03,29.96,0,0,0,0.50
2013-10-5,76.8,69.1,65.1,69.7,65.8,62.1,95,89,77,30.04,29.85,0,0,0,1.23
2013-10-6,73.2,65.5,56.3,65.8,61.5,52.2,92,87,73,29.86,29.65,0,0,0,0.51
2013-10-7,62.6,51.9,0.0,53.9,44.7,40.1,90,75,56,30.11,29.72,0,0,0,0.01
2013-10-8,70.3,54.0,39.4,50.8,43.4,33.2,94,72,32,30.26,30.11,0,0,0,0.00
2013-10-9,72.5,56.2,42.6,51.4,45.5,40.9,94,71,34,30.26,30.17,0,0,0,0.00
2013-10-10,74.1,55.9,39.7,53.5,44.1,38.4,95,70,29,30.19,30.08,0,0,0,0.00
2013-10-11,76.6,58.7,44.2,58.8,50.6,43.0,96,77,46,30.11,30.02,0,0,0,0.00
2013-10-12,80.4,63.7,48.2,60.6,54.4,47.1,100,75,40,30.08,30.00,0,0,0,0.00
2013-10-13,72.9,61.4,48.2,57.6,48.3,39.4,91,66,31,30.30,30.06,0,0,0,0.00
2013-10-14,66.9,53.4,43.5,52.1,44.8,39.8,90,74,49,30.35,30.22,0,0,0,0.00
2013-10-15,63.7,54.4,43.7,60.5,50.5,40.6,92,87,79,30.22,29.85,0,0,0,0.22
2013-10-16,65.5,59.0,45.7,60.8,51.7,41.1,93,78,53,29.92,29.81,0,0,0,0.00
2013-10-17,51.8,46.9,40.6,47.3,43.3,38.3,93,87,83,29.91,29.77,0,0,0,0.06
2013-10-18,66.9,51.0,40.5,50.1,42.4,38.0,92,74,43,29.99,29.82,0,0,0,0.12
2013-10-19,43.7,42.8,40.3,43.2,42.3,39.0,100,98,90,29.99,29.87,0,0,0,0.07
2013-10-20,63.3,50.0,0.0,43.2,39.8,33.4,100,69,35,29.98,29.88,0,0,0,0.19
2013-10-21,62.1,52.0,39.7,48.7,43.3,35.3,94,73,56,29.93,29.85,11,1,11,0.02
2013-10-22,52.9,40.8,31.5,36.0,30.2,22.7,94,69,36,30.00,29.91,16,4,16,0.01
2013-10-23,49.3,39.1,31.6,38.9,33.3,26.5,100,81,54,29.99,29.83,10,1,10,0.00
2013-10-24,46.8,37.6,30.6,35.1,30.8,26.5,89,77,50,30.22,29.98,8,2,8,0.00
2013-10-25,49.5,36.8,27.5,38.0,28.7,24.5,97,75,43,30.38,30.19,13,4,13,0.01
2013-10-26,51.6,42.4,36.5,37.3,30.2,24.1,77,62,51,30.19,29.86,26,9,27,0.00
2013-10-27,54.9,42.1,31.1,37.2,30.9,26.8,91,67,38,30.10,30.03,16,2,16,0.00
2013-10-28,57.4,42.3,29.8,40.7,33.7,25.7,89,73,46,30.37,30.08,11,2,11,0.00
2013-10-29,57.6,44.2,32.9,41.9,36.4,28.9,90,76,48,30.43,30.24,11,3,11,0.00
2013-10-30,65.8,52.1,34.9,57.3,45.5,33.1,100,79,59,30.24,29.97,11,2,11,0.00
2013-10-31,64.0,61.4,59.2,61.5,58.6,56.2,97,91,79,29.97,29.25,26,11,26,1.12
2013-11-1,60.1,50.0,45.7,58.4,45.7,41.0,94,85,75,29.72,29.26,24,8,24,0.02
2013-11-2,53.4,46.5,43.3,47.1,42.5,38.2,100,86,71,30.10,29.70,11,3,11,0.05
2013-11-3,49.5,40.7,31.3,38.2,33.0,28.5,91,75,55,30.43,30.09,11,4,11,0.00
2013-11-4,52.5,40.7,31.3,37.7,30.2,22.0,86,69,32,30.46,30.32,11,3,11,0.00
2013-11-5,56.5,49.8,42.1,49.4,43.0,37.1,84,77,69,30.39,30.20,11,4,11,0.00
2013-11-6,59.5,53.5,44.1,54.6,46.2,39.4,92,77,59,30.20,29.89,21,9,25,0.11
2013-11-7,49.6,41.9,35.8,41.0,33.1,27.3,91,72,50,30.18,29.99,11,3,11,0.02
2013-11-8,47.5,38.2,31.6,35.4,29.3,25.4,90,71,45,30.31,30.14,13,2,13,0.00
2013-11-9,61.0,48.4,34.9,42.1,35.0,27.8,76,60,45,30.19,29.87,30,10,30,0.00
2013-11-10,50.5,41.9,32.0,36.7,29.8,25.1,79,62,45,30.29,29.96,11,3,17,0.00
2013-11-11,47.7,38.5,28.4,38.1,31.3,23.8,93,76,56,30.30,30.03,23,7,23,0.14
2013-11-12,28.6,23.0,21.4,24.4,15.9,14.2,84,74,62,30.51,29.92,11,1,11,0.04
2013-11-13,36.5,26.7,0.0,21.1,17.2,12.8,77,67,48,30.50,30.20,18,7,18,0.00
2013-11-14,51.4,36.9,27.0,27.3,21.4,17.3,68,55,30,30.20,30.00,27,10,27,0.00
2013-11-15,49.5,42.2,34.3,29.8,26.3,21.1,72,54,42,30.05,29.99,20,7,20,0.00
2013-11-16,58.5,48.4,33.6,51.3,42.5,25.8,92,80,68,30.06,29.79,19,6,19,0.00
2013-11-17,68.0,59.2,48.4,57.6,52.5,39.4,90,79,66,29.79,29.28,34,14,34,0.40
2013-11-18,48.6,41.1,35.1,39.8,31.8,22.7,85,70,57,30.11,29.57,21,7,21,0.00
2013-11-19,43.2,35.0,25.9,25.0,21.7,17.8,73,59,42,30.34,30.11,13,2,13,0.00
2013-11-20,46.4,33.7,24.6,30.6,23.1,17.1,75,66,47,30.36,30.17,11,2,11,0.00
2013-11-21,46.8,43.6,41.2,44.5,38.1,29.9,95,82,63,30.25,30.13,13,3,13,0.44
2013-11-22,47.5,41.9,27.5,46.7,38.7,21.9,97,88,71,30.32,30.09,11,2,11,0.07
2013-11-23,35.6,26.0,16.7,25.4,15.1,1.7,83,64,43,30.48,30.25,18,3,18,0.01
2013-11-24,28.9,19.8,12.7,11.1,6.0,2.2,67,55,39,30.56,30.40,8,2,8,0.00
2013-11-25,32.4,26.0,17.6,19.9,11.7,7.0,65,54,42,30.40,30.08,24,10,24,0.00
2013-11-26,34.3,31.5,29.7,24.7,22.1,18.7,75,68,60,30.09,29.87,14,4,14,0.00
2013-11-27,34.5,26.1,17.6,22.1,10.8,4.0,71,53,35,30.16,29.85,17,2,17,0.00
2013-11-28,29.3,24.3,16.2,15.7,10.6,4.5,73,56,42,30.36,30.16,18,3,18,0.00
2013-11-29,37.8,26.7,18.5,18.3,13.4,8.6,72,58,35,30.58,30.36,8,1,8,0.00
2013-11-30,48.2,33.9,23.7,25.9,20.4,14.2,70,58,40,30.49,30.07,16,4,16,0.00
2013-12-1,47.5,37.3,27.9,32.2,26.7,18.2,76,66,52,30.07,29.93,11,3,11,0.00
2013-12-2,39.4,33.2,27.9,29.4,26.0,22.5,87,75,63,29.93,29.82,10,3,10,0.00
2013-12-3,48.7,39.3,33.3,42.1,34.4,26.1,91,83,73,29.83,29.74,11,2,11,0.05
2013-12-4,58.6,50.0,38.7,52.5,45.5,36.3,93,85,75,29.84,29.62,14,4,14,0.00
2013-12-5,60.4,43.2,28.9,53.6,35.5,21.8,84,74,61,30.12,29.62,21,6,21,0.00
2013-12-6,31.6,29.1,23.9,24.8,19.2,13.3,83,66,58,30.33,30.08,10,1,10,0.00
2013-12-7,29.3,22.2,16.0,14.0,8.8,4.2,68,56,40,30.54,30.33,10,1,10,0.00
2013-12-8,27.9,22.8,15.1,22.5,11.2,3.9,81,61,44,30.52,29.92,16,6,16,0.00
2013-12-9,30.7,26.3,19.9,27.7,18.7,7.9,90,73,58,30.11,29.86,19,8,19,0.00
2013-12-10,27.9,19.3,10.9,8.0,3.0,-3.8,60,49,32,30.19,29.94,29,7,29,0.00
2013-12-11,25.2,17.4,5.2,16.0,6.4,-5.6,75,62,52,30.40,30.19,14,4,14,0.00
2013-12-12,17.8,9.9,1.8,-0.3,-4.2,-10.0,63,52,41,30.42,30.17,20,7,20,0.00
2013-12-13,31.6,22.1,12.0,15.6,8.1,-1.2,62,54,46,30.19,30.11,14,4,14,0.00
2013-12-14,30.2,25.8,20.7,27.1,20.9,15.1,88,81,60,30.17,29.71,17,7,17,0.00
2013-12-15,23.9,17.6,8.2,17.9,9.3,-2.7,82,70,60,30.02,29.76,22,7,22,0.00
2013-12-16,24.4,14.6,6.1,10.5,3.4,-3.4,72,61,47,30.13,29.93,8,2,8,0.05
2013-12-17,24.3,21.0,17.2,18.0,14.4,10.4,80,75,72,29.99,29.87,17,6,17,0.00
2013-12-18,31.1,21.5,16.0,15.9,11.4,7.3,80,65,51,30.13,29.87,18,8,18,0.00
2013-12-19,41.4,35.9,28.4,32.9,26.3,16.0,78,68,53,29.95,29.84,18,6,18,0.04
2013-12-20,55.4,45.9,39.4,52.2,42.3,32.3,92,87,71,29.84,29.68,17,7,17,0.18
2013-12-21,55.4,40.3,33.3,52.5,38.1,30.9,95,92,88,29.80,29.53,24,7,24,1.96
2013-12-22,43.2,37.3,33.3,40.7,34.0,29.2,97,88,81,29.94,29.39,34,9,34,0.33
2013-12-23,34.2,29.5,21.6,31.3,22.2,8.2,89,74,57,30.28,29.94,17,6,17,0.01
2013-12-24,21.9,15.8,10.0,8.9,4.8,-1.3,70,61,51,30.48,30.26,10,4,10,0.00
2013-12-25,26.2,21.5,12.0,20.1,11.9,4.5,79,66,55,30.44,30.08,20,7,20,0.00
2013-12-26,30.0,27.5,25.3,24.8,17.8,11.1,85,67,51,30.25,30.01,18,6,18,0.00
2013-12-27,41.5,34.9,28.2,30.7,25.6,18.4,73,69,61,30.28,30.09,17,7,17,0.00
2013-12-28,48.6,39.1,33.3,35.7,30.1,26.5,79,70,60,30.10,29.89,17,8,17,0.00
2013-12-29,46.0,37.3,26.8,32.9,27.8,17.7,84,69,58,29.95,29.66,13,4,13,0.01
2013-12-30,26.8,22.7,20.1,17.7,9.6,4.0,68,57,42,30.20,29.95,11,3,11,0.00
2013-12-31,20.8,17.7,0.0,11.1,6.4,0.6,71,61,44,30.27,30.04,23,6,23,0.00
2014-1-1,19.8,17.4,16.0,12.5,9.4,7.4,74,70,65,30.26,30.06,18,7,18,0.00
2014-1-2,19.0,13.3,4.8,11.9,4.7,-7.9,73,68,53,30.19,29.92,27,15,27,0.00